sensor_id;sensor_type;location;lat;lon;timestamp;temperature;humidity
40323;DHT22;26030;51.164;17.100;2024-03-02T00:00:28;22.80;63.80
40323;DHT22;26030;51.164;17.100;2024-03-02T00:05:52;22.70;64.10
40323;DHT22;26030;51.164;17.100;2024-03-02T00:10:57;22.70;63.90
40323;DHT22;26030;51.164;17.100;2024-03-02T00:16:03;22.70;64.70
40323;DHT22;26030;51.164;17.100;2024-03-02T00:21:09;22.70;65.60
40323;DHT22;26030;51.164;17.100;2024-03-02T00:26:14;22.90;65.20
40323;DHT22;26030;51.164;17.100;2024-03-02T00:31:19;23.00;64.40
40323;DHT22;26030;51.164;17.100;2024-03-02T00:36:27;23.00;64.80
40323;DHT22;26030;51.164;17.100;2024-03-02T00:41:31;22.70;64.90
40323;DHT22;26030;51.164;17.100;2024-03-02T00:46:39;22.90;64.80
40323;DHT22;26030;51.164;17.100;2024-03-02T00:51:46;23.10;64.30
40323;DHT22;26030;51.164;17.100;2024-03-02T00:56:54;23.20;64.30
40323;DHT22;26030;51.164;17.100;2024-03-02T01:02:01;23.40;64.20
40323;DHT22;26030;51.164;17.100;2024-03-02T01:07:05;23.50;64.10
40323;DHT22;26030;51.164;17.100;2024-03-02T01:12:10;23.50;64.60
40323;DHT22;26030;51.164;17.100;2024-03-02T01:17:14;23.50;64.50
40323;DHT22;26030;51.164;17.100;2024-03-02T01:22:19;23.60;64.40
40323;DHT22;26030;51.164;17.100;2024-03-02T01:27:29;23.50;64.70
40323;DHT22;26030;51.164;17.100;2024-03-02T01:32:33;23.40;64.90
40323;DHT22;26030;51.164;17.100;2024-03-02T01:37:37;23.60;64.90
40323;DHT22;26030;51.164;17.100;2024-03-02T01:42:42;23.60;65.00
40323;DHT22;26030;51.164;17.100;2024-03-02T01:47:47;23.70;64.50
40323;DHT22;26030;51.164;17.100;2024-03-02T01:52:51;23.70;64.40
40323;DHT22;26030;51.164;17.100;2024-03-02T01:57:56;23.70;64.80
40323;DHT22;26030;51.164;17.100;2024-03-02T02:03:02;23.60;64.80
40323;DHT22;26030;51.164;17.100;2024-03-02T02:08:06;23.60;64.40
40323;DHT22;26030;51.164;17.100;2024-03-02T02:13:11;23.60;64.80
40323;DHT22;26030;51.164;17.100;2024-03-02T02:18:16;23.40;65.70
40323;DHT22;26030;51.164;17.100;2024-03-02T02:23:20;23.70;64.50
40323;DHT22;26030;51.164;17.100;2024-03-02T02:28:24;23.60;64.10
40323;DHT22;26030;51.164;17.100;2024-03-02T02:33:29;23.60;64.30
40323;DHT22;26030;51.164;17.100;2024-03-02T02:38:33;23.40;64.40
40323;DHT22;26030;51.164;17.100;2024-03-02T02:43:41;23.40;64.80
40323;DHT22;26030;51.164;17.100;2024-03-02T02:48:46;23.40;64.70
40323;DHT22;26030;51.164;17.100;2024-03-02T02:53:50;23.30;64.60
40323;DHT22;26030;51.164;17.100;2024-03-02T02:58:54;23.40;64.30
40323;DHT22;26030;51.164;17.100;2024-03-02T03:03:59;23.60;63.80
40323;DHT22;26030;51.164;17.100;2024-03-02T03:09:03;23.70;63.40
40323;DHT22;26030;51.164;17.100;2024-03-02T03:14:07;23.80;63.60
40323;DHT22;26030;51.164;17.100;2024-03-02T03:19:11;23.70;63.40
40323;DHT22;26030;51.164;17.100;2024-03-02T03:24:15;23.60;63.30
40323;DHT22;26030;51.164;17.100;2024-03-02T03:29:19;23.70;63.30
40323;DHT22;26030;51.164;17.100;2024-03-02T03:34:23;23.70;63.10
40323;DHT22;26030;51.164;17.100;2024-03-02T03:39:28;23.70;63.00
40323;DHT22;26030;51.164;17.100;2024-03-02T03:44:33;23.70;63.20
40323;DHT22;26030;51.164;17.100;2024-03-02T03:49:37;23.70;63.30
40323;DHT22;26030;51.164;17.100;2024-03-02T03:54:41;23.60;63.30
40323;DHT22;26030;51.164;17.100;2024-03-02T03:59:46;23.50;63.30
40323;DHT22;26030;51.164;17.100;2024-03-02T04:04:51;23.60;64.00
40323;DHT22;26030;51.164;17.100;2024-03-02T04:09:55;23.40;63.20
40323;DHT22;26030;51.164;17.100;2024-03-02T04:14:59;23.40;63.60
40323;DHT22;26030;51.164;17.100;2024-03-02T04:20:05;23.40;63.70
40323;DHT22;26030;51.164;17.100;2024-03-02T04:25:09;23.30;63.80
40323;DHT22;26030;51.164;17.100;2024-03-02T04:30:15;23.20;63.00
40323;DHT22;26030;51.164;17.100;2024-03-02T04:35:19;23.30;63.20
40323;DHT22;26030;51.164;17.100;2024-03-02T04:40:24;23.30;63.40
40323;DHT22;26030;51.164;17.100;2024-03-02T04:45:29;23.10;63.10
40323;DHT22;26030;51.164;17.100;2024-03-02T04:50:33;23.30;63.30
40323;DHT22;26030;51.164;17.100;2024-03-02T04:55:37;23.40;62.50
40323;DHT22;26030;51.164;17.100;2024-03-02T05:00:44;23.60;62.30
40323;DHT22;26030;51.164;17.100;2024-03-02T05:05:50;23.70;62.00
40323;DHT22;26030;51.164;17.100;2024-03-02T05:10:55;23.80;61.70
40323;DHT22;26030;51.164;17.100;2024-03-02T05:16:20;23.70;61.60
40323;DHT22;26030;51.164;17.100;2024-03-02T05:21:24;23.70;61.90
40323;DHT22;26030;51.164;17.100;2024-03-02T05:26:30;23.60;62.00
40323;DHT22;26030;51.164;17.100;2024-03-02T05:31:34;23.60;62.10
40323;DHT22;26030;51.164;17.100;2024-03-02T05:36:38;23.50;62.30
40323;DHT22;26030;51.164;17.100;2024-03-02T05:41:41;23.50;62.20
40323;DHT22;26030;51.164;17.100;2024-03-02T05:46:46;23.50;62.10
40323;DHT22;26030;51.164;17.100;2024-03-02T05:51:51;23.50;61.60
40323;DHT22;26030;51.164;17.100;2024-03-02T05:56:55;23.50;62.20
40323;DHT22;26030;51.164;17.100;2024-03-02T06:02:00;23.40;62.30
40323;DHT22;26030;51.164;17.100;2024-03-02T06:07:04;23.30;62.30
40323;DHT22;26030;51.164;17.100;2024-03-02T06:12:08;23.30;62.10
40323;DHT22;26030;51.164;17.100;2024-03-02T06:17:15;23.30;62.10
40323;DHT22;26030;51.164;17.100;2024-03-02T06:22:19;23.30;61.80
40323;DHT22;26030;51.164;17.100;2024-03-02T06:27:24;23.20;62.20
40323;DHT22;26030;51.164;17.100;2024-03-02T06:32:29;23.20;62.10
40323;DHT22;26030;51.164;17.100;2024-03-02T06:37:33;23.10;61.90
40323;DHT22;26030;51.164;17.100;2024-03-02T06:42:37;23.10;62.10
40323;DHT22;26030;51.164;17.100;2024-03-02T06:47:41;23.10;62.70
40323;DHT22;26030;51.164;17.100;2024-03-02T06:52:48;23.10;62.00
40323;DHT22;26030;51.164;17.100;2024-03-02T06:57:52;23.00;62.10
40323;DHT22;26030;51.164;17.100;2024-03-02T07:02:56;23.00;62.20
40323;DHT22;26030;51.164;17.100;2024-03-02T07:08:00;23.00;62.10
40323;DHT22;26030;51.164;17.100;2024-03-02T07:13:06;23.00;62.20
40323;DHT22;26030;51.164;17.100;2024-03-02T07:18:11;22.90;62.10
40323;DHT22;26030;51.164;17.100;2024-03-02T07:23:15;22.90;62.10
40323;DHT22;26030;51.164;17.100;2024-03-02T07:28:19;22.90;62.20
40323;DHT22;26030;51.164;17.100;2024-03-02T07:33:23;22.90;62.20
40323;DHT22;26030;51.164;17.100;2024-03-02T07:38:27;22.90;62.30
40323;DHT22;26030;51.164;17.100;2024-03-02T07:43:32;23.00;62.00
40323;DHT22;26030;51.164;17.100;2024-03-02T07:48:37;23.00;61.90
40323;DHT22;26030;51.164;17.100;2024-03-02T07:53:41;23.10;62.00
40323;DHT22;26030;51.164;17.100;2024-03-02T07:58:46;23.00;62.10
40323;DHT22;26030;51.164;17.100;2024-03-02T08:03:53;23.00;61.70
40323;DHT22;26030;51.164;17.100;2024-03-02T08:08:59;23.10;61.80
40323;DHT22;26030;51.164;17.100;2024-03-02T08:14:04;23.10;62.30
40323;DHT22;26030;51.164;17.100;2024-03-02T08:19:09;23.10;61.60
40323;DHT22;26030;51.164;17.100;2024-03-02T08:24:13;23.00;61.40
40323;DHT22;26030;51.164;17.100;2024-03-02T08:29:18;22.90;62.20
40323;DHT22;26030;51.164;17.100;2024-03-02T08:34:22;22.90;61.70
40323;DHT22;26030;51.164;17.100;2024-03-02T08:39:27;22.80;62.40
40323;DHT22;26030;51.164;17.100;2024-03-02T08:44:31;22.70;62.70
40323;DHT22;26030;51.164;17.100;2024-03-02T08:49:36;22.90;62.80
40323;DHT22;26030;51.164;17.100;2024-03-02T08:54:41;22.80;62.70
40323;DHT22;26030;51.164;17.100;2024-03-02T08:59:45;22.80;62.90
40323;DHT22;26030;51.164;17.100;2024-03-02T09:04:50;22.70;63.00
40323;DHT22;26030;51.164;17.100;2024-03-02T09:09:54;22.70;62.80
40323;DHT22;26030;51.164;17.100;2024-03-02T09:14:59;22.80;62.80
40323;DHT22;26030;51.164;17.100;2024-03-02T09:20:05;22.80;63.50
40323;DHT22;26030;51.164;17.100;2024-03-02T09:25:10;22.90;62.70
40323;DHT22;26030;51.164;17.100;2024-03-02T09:30:14;22.90;62.30
40323;DHT22;26030;51.164;17.100;2024-03-02T09:35:18;23.00;62.20
40323;DHT22;26030;51.164;17.100;2024-03-02T11:22:26;23.10;63.90
40323;DHT22;26030;51.164;17.100;2024-03-02T11:33:15;23.20;61.60
40323;DHT22;26030;51.164;17.100;2024-03-02T11:49:55;23.10;61.00
40323;DHT22;26030;51.164;17.100;2024-03-02T11:54:58;23.20;60.70
40323;DHT22;26030;51.164;17.100;2024-03-02T12:00:05;23.10;59.70
40323;DHT22;26030;51.164;17.100;2024-03-02T12:05:09;23.10;60.00
40323;DHT22;26030;51.164;17.100;2024-03-02T12:10:13;22.80;58.00
40323;DHT22;26030;51.164;17.100;2024-03-02T12:15:22;21.90;56.50
40323;DHT22;26030;51.164;17.100;2024-03-02T12:26:02;21.40;55.80
40323;DHT22;26030;51.164;17.100;2024-03-02T12:31:26;21.50;56.00
40323;DHT22;26030;51.164;17.100;2024-03-02T12:36:29;22.20;56.60
40323;DHT22;26030;51.164;17.100;2024-03-02T12:41:33;22.60;56.70
40323;DHT22;26030;51.164;17.100;2024-03-02T12:46:37;22.80;56.70
40323;DHT22;26030;51.164;17.100;2024-03-02T12:51:55;22.80;56.50
40323;DHT22;26030;51.164;17.100;2024-03-02T12:57:10;22.80;56.70
40323;DHT22;26030;51.164;17.100;2024-03-02T13:02:21;23.00;56.80
40323;DHT22;26030;51.164;17.100;2024-03-02T13:07:37;22.90;58.00
40323;DHT22;26030;51.164;17.100;2024-03-02T13:12:41;22.70;58.50
40323;DHT22;26030;51.164;17.100;2024-03-02T13:17:56;22.70;58.90
40323;DHT22;26030;51.164;17.100;2024-03-02T13:23:03;22.70;59.20
40323;DHT22;26030;51.164;17.100;2024-03-02T13:28:09;22.70;58.90
40323;DHT22;26030;51.164;17.100;2024-03-02T13:33:14;22.80;58.50
40323;DHT22;26030;51.164;17.100;2024-03-02T13:38:19;22.90;58.70
40323;DHT22;26030;51.164;17.100;2024-03-02T13:43:23;23.00;58.50
40323;DHT22;26030;51.164;17.100;2024-03-02T13:48:34;22.90;58.50
40323;DHT22;26030;51.164;17.100;2024-03-02T13:53:43;22.90;57.70
40323;DHT22;26030;51.164;17.100;2024-03-02T13:58:52;22.90;57.40
40323;DHT22;26030;51.164;17.100;2024-03-02T14:03:55;22.90;57.40
40323;DHT22;26030;51.164;17.100;2024-03-02T14:08:59;22.80;57.50
40323;DHT22;26030;51.164;17.100;2024-03-02T14:14:05;22.80;57.50
40323;DHT22;26030;51.164;17.100;2024-03-02T14:19:09;22.80;57.30
40323;DHT22;26030;51.164;17.100;2024-03-02T14:24:29;22.80;57.60
40323;DHT22;26030;51.164;17.100;2024-03-02T14:29:36;22.80;57.50
40323;DHT22;26030;51.164;17.100;2024-03-02T14:34:41;22.80;57.70
40323;DHT22;26030;51.164;17.100;2024-03-02T14:39:45;22.90;57.50
40323;DHT22;26030;51.164;17.100;2024-03-02T14:44:48;22.90;57.60
40323;DHT22;26030;51.164;17.100;2024-03-02T14:49:52;22.80;58.00
40323;DHT22;26030;51.164;17.100;2024-03-02T14:54:59;22.80;58.00
40323;DHT22;26030;51.164;17.100;2024-03-02T15:00:02;22.80;58.30
40323;DHT22;26030;51.164;17.100;2024-03-02T15:05:10;22.90;57.70
40323;DHT22;26030;51.164;17.100;2024-03-02T15:10:14;22.80;58.10
40323;DHT22;26030;51.164;17.100;2024-03-02T15:15:21;22.80;57.90
40323;DHT22;26030;51.164;17.100;2024-03-02T15:20:27;22.80;57.70
40323;DHT22;26030;51.164;17.100;2024-03-02T15:25:30;22.70;57.80
40323;DHT22;26030;51.164;17.100;2024-03-02T15:30:34;22.70;58.80
40323;DHT22;26030;51.164;17.100;2024-03-02T15:35:38;23.00;58.40
40323;DHT22;26030;51.164;17.100;2024-03-02T15:40:42;23.40;57.70
40323;DHT22;26030;51.164;17.100;2024-03-02T15:45:48;23.70;57.50
40323;DHT22;26030;51.164;17.100;2024-03-02T15:50:54;23.80;57.10
40323;DHT22;26030;51.164;17.100;2024-03-02T15:55:59;23.70;57.60
40323;DHT22;26030;51.164;17.100;2024-03-02T16:01:02;23.60;57.80
40323;DHT22;26030;51.164;17.100;2024-03-02T16:06:06;23.60;57.90
40323;DHT22;26030;51.164;17.100;2024-03-02T16:11:10;23.50;58.10
40323;DHT22;26030;51.164;17.100;2024-03-02T16:16:14;23.50;58.50
40323;DHT22;26030;51.164;17.100;2024-03-02T16:21:17;23.40;58.70
40323;DHT22;26030;51.164;17.100;2024-03-02T16:26:23;23.40;59.50
40323;DHT22;26030;51.164;17.100;2024-03-02T16:31:27;23.30;59.30
40323;DHT22;26030;51.164;17.100;2024-03-02T16:36:31;23.40;59.60
40323;DHT22;26030;51.164;17.100;2024-03-02T16:41:38;23.40;60.20
40323;DHT22;26030;51.164;17.100;2024-03-02T16:46:46;23.40;60.90
40323;DHT22;26030;51.164;17.100;2024-03-02T16:51:50;23.40;62.50
40323;DHT22;26030;51.164;17.100;2024-03-02T16:56:54;23.50;63.20
40323;DHT22;26030;51.164;17.100;2024-03-02T17:01:58;23.60;64.60
40323;DHT22;26030;51.164;17.100;2024-03-02T17:07:02;23.60;64.20
40323;DHT22;26030;51.164;17.100;2024-03-02T17:12:09;23.60;64.50
40323;DHT22;26030;51.164;17.100;2024-03-02T17:17:12;23.60;65.20
40323;DHT22;26030;51.164;17.100;2024-03-02T17:22:17;23.70;64.60
40323;DHT22;26030;51.164;17.100;2024-03-02T17:27:21;23.70;64.00
40323;DHT22;26030;51.164;17.100;2024-03-02T17:32:25;23.60;63.60
40323;DHT22;26030;51.164;17.100;2024-03-02T17:37:28;23.70;63.60
40323;DHT22;26030;51.164;17.100;2024-03-02T17:42:36;23.60;62.90
40323;DHT22;26030;51.164;17.100;2024-03-02T17:47:40;23.60;63.20
40323;DHT22;26030;51.164;17.100;2024-03-02T17:52:43;23.60;63.60
40323;DHT22;26030;51.164;17.100;2024-03-02T17:57:50;23.60;62.80
40323;DHT22;26030;51.164;17.100;2024-03-02T18:02:54;23.50;63.20
40323;DHT22;26030;51.164;17.100;2024-03-02T18:07:58;23.60;63.10
40323;DHT22;26030;51.164;17.100;2024-03-02T18:13:03;23.50;62.80
40323;DHT22;26030;51.164;17.100;2024-03-02T18:18:09;23.50;63.10
40323;DHT22;26030;51.164;17.100;2024-03-02T18:23:16;23.50;62.60
40323;DHT22;26030;51.164;17.100;2024-03-02T18:28:20;23.60;62.20
40323;DHT22;26030;51.164;17.100;2024-03-02T18:33:24;23.70;61.70
40323;DHT22;26030;51.164;17.100;2024-03-02T18:38:27;23.60;61.90
40323;DHT22;26030;51.164;17.100;2024-03-02T18:43:31;23.50;61.80
40323;DHT22;26030;51.164;17.100;2024-03-02T18:48:35;23.50;61.90
40323;DHT22;26030;51.164;17.100;2024-03-02T18:53:39;23.40;62.00
40323;DHT22;26030;51.164;17.100;2024-03-02T18:58:43;23.30;62.00
40323;DHT22;26030;51.164;17.100;2024-03-02T19:03:46;23.30;61.90
40323;DHT22;26030;51.164;17.100;2024-03-02T19:08:50;23.40;61.20
40323;DHT22;26030;51.164;17.100;2024-03-02T19:13:54;23.20;62.30
40323;DHT22;26030;51.164;17.100;2024-03-02T19:18:57;23.10;61.90
40323;DHT22;26030;51.164;17.100;2024-03-02T19:24:01;23.10;62.20
40323;DHT22;26030;51.164;17.100;2024-03-02T19:29:05;23.00;62.00
40323;DHT22;26030;51.164;17.100;2024-03-02T19:34:09;23.00;62.30
40323;DHT22;26030;51.164;17.100;2024-03-02T19:39:13;22.90;62.00
40323;DHT22;26030;51.164;17.100;2024-03-02T19:44:17;22.90;62.10
40323;DHT22;26030;51.164;17.100;2024-03-02T19:49:21;22.90;62.00
40323;DHT22;26030;51.164;17.100;2024-03-02T19:54:25;22.90;62.00
40323;DHT22;26030;51.164;17.100;2024-03-02T19:59:29;22.80;62.30
40323;DHT22;26030;51.164;17.100;2024-03-02T20:04:36;22.80;62.20
40323;DHT22;26030;51.164;17.100;2024-03-02T20:09:39;22.90;62.10
40323;DHT22;26030;51.164;17.100;2024-03-02T20:14:44;22.90;61.50
40323;DHT22;26030;51.164;17.100;2024-03-02T20:19:48;22.90;61.40
40323;DHT22;26030;51.164;17.100;2024-03-02T20:24:52;22.90;61.20
40323;DHT22;26030;51.164;17.100;2024-03-02T20:29:55;23.10;61.00
40323;DHT22;26030;51.164;17.100;2024-03-02T20:35:00;23.00;60.60
40323;DHT22;26030;51.164;17.100;2024-03-02T20:40:04;23.00;60.40
40323;DHT22;26030;51.164;17.100;2024-03-02T20:45:08;23.10;63.80
40323;DHT22;26030;51.164;17.100;2024-03-02T20:50:12;23.00;63.60
40323;DHT22;26030;51.164;17.100;2024-03-02T20:55:16;23.00;62.80
40323;DHT22;26030;51.164;17.100;2024-03-02T21:00:20;22.90;62.50
40323;DHT22;26030;51.164;17.100;2024-03-02T21:05:24;22.80;62.40
40323;DHT22;26030;51.164;17.100;2024-03-02T21:10:27;22.80;63.00
40323;DHT22;26030;51.164;17.100;2024-03-02T21:15:31;23.00;64.10
40323;DHT22;26030;51.164;17.100;2024-03-02T21:20:38;23.00;65.60
40323;DHT22;26030;51.164;17.100;2024-03-02T21:25:41;22.90;65.10
40323;DHT22;26030;51.164;17.100;2024-03-02T21:30:48;22.80;64.90
40323;DHT22;26030;51.164;17.100;2024-03-02T21:35:51;22.70;64.80
40323;DHT22;26030;51.164;17.100;2024-03-02T21:40:55;22.70;64.90
40323;DHT22;26030;51.164;17.100;2024-03-02T21:45:59;23.00;63.80
40323;DHT22;26030;51.164;17.100;2024-03-02T21:51:05;22.90;63.60
40323;DHT22;26030;51.164;17.100;2024-03-02T21:56:09;22.90;63.30
40323;DHT22;26030;51.164;17.100;2024-03-02T22:01:25;22.90;63.10
40323;DHT22;26030;51.164;17.100;2024-03-02T22:06:30;23.00;63.90
40323;DHT22;26030;51.164;17.100;2024-03-02T22:11:39;22.80;63.30
40323;DHT22;26030;51.164;17.100;2024-03-02T22:16:43;22.80;63.30
40323;DHT22;26030;51.164;17.100;2024-03-02T22:21:47;23.20;62.50
40323;DHT22;26030;51.164;17.100;2024-03-02T22:26:50;23.50;61.80
40323;DHT22;26030;51.164;17.100;2024-03-02T22:31:54;23.60;61.20
40323;DHT22;26030;51.164;17.100;2024-03-02T22:37:05;23.60;61.20
40323;DHT22;26030;51.164;17.100;2024-03-02T22:42:11;23.60;61.10
40323;DHT22;26030;51.164;17.100;2024-03-02T22:47:20;23.60;61.80
40323;DHT22;26030;51.164;17.100;2024-03-02T22:52:24;23.50;61.50
40323;DHT22;26030;51.164;17.100;2024-03-02T22:57:28;23.40;61.50
40323;DHT22;26030;51.164;17.100;2024-03-02T23:02:32;23.30;61.90
40323;DHT22;26030;51.164;17.100;2024-03-02T23:07:36;23.20;62.30
40323;DHT22;26030;51.164;17.100;2024-03-02T23:12:42;23.20;62.30
40323;DHT22;26030;51.164;17.100;2024-03-02T23:18:04;23.10;62.10
40323;DHT22;26030;51.164;17.100;2024-03-02T23:23:10;23.10;62.30
40323;DHT22;26030;51.164;17.100;2024-03-02T23:28:16;23.10;62.30
40323;DHT22;26030;51.164;17.100;2024-03-02T23:33:20;23.10;62.00
40323;DHT22;26030;51.164;17.100;2024-03-02T23:38:24;23.10;62.20
40323;DHT22;26030;51.164;17.100;2024-03-02T23:43:37;23.10;62.20
40323;DHT22;26030;51.164;17.100;2024-03-02T23:48:44;23.00;62.20
40323;DHT22;26030;51.164;17.100;2024-03-02T23:53:47;23.00;62.40
40323;DHT22;26030;51.164;17.100;2024-03-02T23:58:53;23.00;62.40
